createdAt,value
2022-11-13T00:02:00.343Z,3.22
2022-11-13T00:05:21.504Z,3.20
2022-11-13T00:08:42.799Z,3.30
2022-11-13T00:12:04.152Z,3.37
2022-11-13T00:15:25.237Z,3.08
2022-11-13T00:18:47.309Z,2.97
2022-11-13T00:22:08.442Z,2.80
2022-11-13T00:25:29.231Z,2.66
2022-11-13T00:29:02.933Z,2.87
2022-11-13T00:32:24.112Z,2.91
2022-11-13T00:35:45.449Z,2.87
2022-11-13T00:39:06.871Z,2.84
2022-11-13T00:42:28.184Z,2.86
2022-11-13T00:45:49.410Z,3.09
2022-11-13T00:49:10.600Z,2.85
2022-11-13T00:52:31.440Z,3.03
2022-11-13T00:55:52.474Z,2.92
2022-11-13T00:59:13.433Z,3.03
2022-11-13T01:02:34.432Z,2.94
2022-11-13T01:05:55.404Z,2.83
2022-11-13T01:09:16.704Z,2.64
2022-11-13T01:12:37.892Z,2.63
2022-11-13T01:15:58.961Z,2.54
2022-11-13T01:19:19.762Z,2.48
2022-11-13T01:22:40.651Z,2.72
2022-11-13T01:26:07.009Z,2.82
2022-11-13T01:29:28.071Z,2.78
2022-11-13T01:32:49.119Z,2.68
2022-11-13T01:36:19.106Z,2.59
2022-11-13T01:39:40.655Z,2.62
2022-11-13T01:43:32.614Z,2.85
2022-11-13T01:46:56.709Z,2.91
2022-11-13T01:50:17.999Z,2.92
2022-11-13T01:53:43.607Z,2.88
2022-11-13T01:57:05.630Z,2.70
2022-11-13T02:00:26.720Z,2.54
2022-11-13T02:03:48.106Z,2.60
2022-11-13T02:07:13.056Z,2.61
2022-11-13T02:10:34.433Z,2.58
2022-11-13T02:13:55.429Z,2.60
2022-11-13T02:17:33.146Z,2.28
2022-11-13T02:21:17.702Z,2.52
2022-11-13T02:24:45.018Z,2.53
2022-11-13T02:28:06.655Z,2.37
2022-11-13T02:31:27.906Z,2.59
2022-11-13T02:34:49.171Z,2.59
2022-11-13T02:38:10.059Z,2.67
2022-11-13T02:41:31.376Z,2.41
2022-11-13T02:44:52.681Z,2.20
2022-11-13T02:48:13.610Z,2.30
2022-11-13T02:51:34.525Z,2.38
2022-11-13T02:54:55.242Z,2.38
2022-11-13T02:58:16.100Z,2.45
2022-11-13T03:01:37.092Z,2.40
2022-11-13T03:05:11.992Z,2.31
2022-11-13T03:08:35.366Z,2.22
2022-11-13T03:11:56.932Z,1.99
2022-11-13T03:15:17.875Z,2.10
2022-11-13T03:18:38.830Z,1.96
2022-11-13T03:21:59.958Z,1.93
2022-11-13T03:25:20.869Z,1.75
2022-11-13T03:28:42.021Z,1.98
2022-11-13T03:32:03.412Z,1.83
2022-11-13T03:35:26.655Z,1.70
2022-11-13T03:38:51.006Z,1.74
2022-11-13T03:42:12.018Z,1.57
2022-11-13T03:45:32.918Z,1.72
2022-11-13T03:48:57.003Z,1.72
2022-11-13T03:52:18.173Z,2.03
2022-11-13T03:55:39.647Z,2.11
2022-11-13T03:59:03.829Z,2.40
2022-11-13T04:02:24.893Z,1.93
2022-11-13T04:05:48.941Z,1.98
2022-11-13T04:09:09.897Z,2.26
2022-11-13T04:12:30.947Z,2.34
2022-11-13T04:15:51.990Z,2.49
2022-11-13T04:19:12.917Z,2.12
2022-11-13T04:22:34.177Z,2.07
2022-11-13T04:25:55.177Z,1.97
2022-11-13T04:29:20.810Z,1.96
2022-11-13T04:32:42.200Z,1.96
2022-11-13T04:36:03.578Z,1.88
2022-11-13T04:39:24.730Z,1.96
2022-11-13T04:42:51.612Z,1.95
2022-11-13T04:46:12.646Z,1.98
2022-11-13T04:49:33.942Z,1.82
2022-11-13T04:52:54.788Z,1.76
2022-11-13T04:56:15.835Z,1.87
2022-11-13T04:59:36.796Z,1.94
2022-11-13T05:02:57.767Z,1.78
2022-11-13T05:06:19.050Z,1.61
2022-11-13T05:09:39.988Z,1.70
2022-11-13T05:13:00.965Z,1.71
2022-11-13T05:16:21.883Z,1.77
2022-11-13T05:19:42.857Z,1.74
2022-11-13T05:23:03.939Z,1.74
2022-11-13T05:26:26.372Z,1.92
2022-11-13T05:29:47.627Z,1.97
2022-11-13T05:33:09.079Z,1.69
2022-11-13T05:36:30.146Z,1.86
2022-11-13T05:39:51.412Z,1.99
2022-11-13T05:43:12.569Z,1.65
2022-11-13T05:46:33.430Z,1.87
2022-11-13T05:49:54.588Z,1.79
2022-11-13T05:53:15.451Z,1.57
2022-11-13T05:56:37.326Z,1.59
2022-11-13T05:59:58.598Z,1.49
2022-11-13T06:03:19.765Z,1.78
2022-11-13T06:06:41.135Z,1.63
2022-11-13T06:10:02.501Z,1.69
2022-11-13T06:13:23.315Z,1.72
2022-11-13T06:16:44.249Z,1.45
2022-11-13T06:20:05.450Z,1.62
2022-11-13T06:23:26.402Z,1.59
2022-11-13T06:26:47.254Z,1.53
2022-11-13T06:30:09.602Z,1.93
2022-11-13T06:33:31.073Z,1.68
2022-11-13T06:36:51.936Z,2.03
2022-11-13T06:40:13.749Z,2.00
2022-11-13T06:43:35.232Z,1.62
2022-11-13T06:46:56.190Z,1.41
2022-11-13T06:50:17.288Z,1.46
2022-11-13T06:53:38.479Z,1.98
2022-11-13T06:56:59.752Z,2.48
2022-11-13T07:00:20.811Z,2.70
2022-11-13T07:03:42.676Z,2.96
2022-11-13T07:07:04.413Z,3.24
2022-11-13T07:10:26.834Z,3.38
2022-11-13T07:13:48.342Z,3.33
2022-11-13T07:17:10.583Z,3.44
2022-11-13T07:20:33.128Z,3.71
2022-11-13T07:23:53.937Z,3.59
2022-11-13T07:27:15.040Z,3.95
2022-11-13T07:30:36.004Z,3.73
2022-11-13T07:33:57.312Z,3.63
2022-11-13T07:37:18.552Z,3.87
2022-11-13T07:40:39.402Z,4.29
2022-11-13T07:44:00.489Z,4.46
2022-11-13T07:47:21.416Z,4.76
2022-11-13T07:50:42.570Z,5.02
2022-11-13T07:54:04.598Z,5.01
2022-11-13T07:57:27.256Z,5.22
2022-11-13T08:00:49.143Z,5.49
2022-11-13T08:04:10.161Z,5.65
2022-11-13T08:07:31.357Z,5.72
2022-11-13T08:10:52.582Z,6.06
2022-11-13T08:14:13.772Z,6.31
2022-11-13T08:17:34.918Z,6.56
2022-11-13T08:20:56.438Z,6.76
2022-11-13T08:24:17.781Z,6.87
2022-11-13T08:27:38.880Z,7.09
2022-11-13T08:31:00.210Z,7.32
2022-11-13T08:34:21.209Z,7.23
2022-11-13T08:37:42.311Z,7.50
2022-11-13T08:41:08.910Z,7.76
2022-11-13T08:44:31.283Z,7.68
2022-11-13T08:47:52.527Z,7.75
2022-11-13T08:51:13.627Z,7.99
2022-11-13T08:54:34.751Z,8.19
2022-11-13T08:58:00.175Z,8.31
2022-11-13T09:01:23.419Z,8.48
2022-11-13T09:04:44.330Z,8.73
2022-11-13T09:08:06.240Z,8.79
2022-11-13T09:11:29.639Z,9.04
2022-11-13T09:14:50.479Z,9.16
2022-11-13T09:18:11.468Z,9.23
2022-11-13T09:21:32.418Z,9.27
2022-11-13T09:24:53.714Z,9.38
2022-11-13T09:28:14.973Z,9.36
2022-11-13T09:31:39.403Z,9.38
2022-11-13T09:35:00.359Z,9.54
2022-11-13T09:38:21.637Z,9.63
2022-11-13T09:41:50.012Z,9.64
2022-11-13T09:45:15.054Z,9.81
2022-11-13T09:48:42.496Z,9.93
2022-11-13T09:52:14.476Z,10.09
2022-11-13T09:55:45.516Z,10.12
2022-11-13T09:59:40.674Z,10.20
2022-11-13T10:03:39.069Z,10.32
2022-11-13T10:07:18.839Z,10.38
2022-11-13T10:10:56.324Z,10.44
2022-11-13T10:14:26.401Z,10.55
2022-11-13T10:18:00.490Z,10.65
2022-11-13T10:21:37.217Z,10.74
2022-11-13T10:25:05.393Z,10.67
2022-11-13T10:28:49.557Z,10.84
2022-11-13T10:32:20.642Z,10.90
2022-11-13T10:35:56.334Z,10.93
2022-11-13T10:39:17.265Z,11.00
2022-11-13T10:42:41.386Z,11.11
2022-11-13T10:46:05.628Z,11.31
2022-11-13T10:49:29.170Z,11.51
2022-11-13T10:52:52.070Z,11.53
2022-11-13T10:56:29.523Z,11.62
2022-11-13T10:59:50.722Z,11.68
2022-11-13T11:03:23.441Z,11.73
2022-11-13T11:10:34.462Z,11.93
2022-11-13T11:14:16.103Z,11.95
2022-11-13T11:17:54.572Z,12.08
2022-11-13T11:21:21.276Z,12.14
2022-11-13T11:24:52.622Z,12.16
2022-11-13T11:28:26.045Z,12.18
2022-11-13T11:31:56.377Z,12.43
2022-11-13T11:35:43.683Z,12.41
2022-11-13T11:39:19.771Z,12.41
2022-11-13T11:43:06.851Z,12.34
2022-11-13T11:46:29.689Z,12.42
2022-11-13T11:49:51.583Z,12.56
2022-11-13T11:53:20.368Z,12.51
2022-11-13T11:56:58.052Z,12.69
2022-11-13T12:00:31.180Z,12.65
2022-11-13T12:04:19.725Z,12.66
2022-11-13T12:08:00.743Z,12.58
2022-11-13T12:11:33.889Z,12.66
2022-11-13T12:15:03.823Z,12.89
2022-11-13T12:18:33.211Z,12.85
2022-11-13T12:22:06.813Z,12.77
2022-11-13T12:25:42.055Z,12.75
2022-11-13T12:29:33.848Z,12.89
2022-11-13T12:33:06.831Z,12.89
2022-11-13T12:36:28.863Z,12.85
2022-11-13T12:40:20.098Z,12.84
2022-11-13T12:44:10.468Z,12.88
2022-11-13T12:47:35.055Z,12.92
2022-11-13T12:50:59.371Z,12.77
2022-11-13T12:54:34.879Z,12.80
2022-11-13T12:58:05.323Z,12.79
2022-11-13T13:01:32.747Z,12.79
2022-11-13T13:05:15.882Z,12.73
2022-11-13T13:09:01.204Z,12.79
2022-11-13T13:13:23.941Z,12.61
2022-11-13T13:16:45.908Z,12.70
2022-11-13T13:20:12.975Z,12.85
2022-11-13T13:23:37.177Z,12.77
2022-11-13T13:26:58.122Z,12.89
2022-11-13T13:30:26.282Z,12.89
2022-11-13T13:34:08.149Z,12.97
2022-11-13T13:37:38.328Z,12.78
2022-11-13T13:41:24.689Z,12.76
2022-11-13T13:45:04.369Z,12.87
2022-11-13T13:48:29.199Z,12.66
2022-11-13T13:51:56.532Z,12.75
2022-11-13T13:55:31.513Z,12.77
2022-11-13T13:58:53.833Z,12.56
2022-11-13T14:02:23.540Z,12.48
2022-11-13T14:05:44.802Z,12.38
2022-11-13T14:09:18.598Z,12.30
2022-11-13T14:12:45.089Z,12.35
2022-11-13T14:16:07.580Z,12.38
2022-11-13T14:19:28.739Z,12.33
2022-11-13T14:22:56.509Z,12.30
2022-11-13T14:26:19.824Z,12.13
2022-11-13T14:29:53.594Z,12.19
2022-11-13T14:33:17.974Z,11.97
2022-11-13T14:36:40.831Z,11.88
2022-11-13T14:40:18.947Z,11.86
2022-11-13T14:43:49.901Z,11.77
2022-11-13T14:47:26.183Z,11.59
2022-11-13T14:50:57.696Z,11.33
2022-11-13T14:58:30.516Z,10.97
2022-11-13T15:01:56.650Z,10.95
2022-11-13T15:05:17.567Z,10.81
2022-11-13T15:08:38.995Z,10.87
2022-11-13T15:12:00.658Z,10.66
2022-11-13T15:15:27.075Z,10.49
2022-11-13T15:18:57.582Z,10.32
2022-11-13T15:22:27.628Z,10.11
2022-11-13T15:25:49.655Z,9.95
2022-11-13T15:29:12.283Z,9.88
2022-11-13T15:32:33.968Z,9.74
2022-11-13T15:35:55.027Z,9.62
2022-11-13T15:39:23.401Z,9.42
2022-11-13T15:42:46.506Z,9.26
2022-11-13T15:46:14.703Z,9.14
2022-11-13T15:49:36.025Z,9.07
2022-11-13T15:53:02.343Z,8.96
2022-11-13T15:56:27.750Z,8.86
2022-11-13T15:59:49.215Z,8.66
2022-11-13T16:03:12.186Z,8.56
2022-11-13T16:06:36.502Z,8.54
2022-11-13T16:09:57.564Z,8.41
2022-11-13T16:13:18.766Z,8.38
2022-11-13T16:16:41.146Z,8.30
2022-11-13T16:20:04.460Z,8.24
2022-11-13T16:23:25.947Z,8.14
2022-11-13T16:26:57.019Z,8.06
2022-11-13T16:30:21.239Z,7.82
2022-11-13T16:33:43.087Z,7.95
2022-11-13T16:37:04.181Z,7.97
2022-11-13T16:40:26.926Z,8.03
2022-11-13T16:43:48.236Z,7.91
2022-11-13T16:47:26.279Z,7.85
2022-11-13T16:50:47.690Z,7.77
2022-11-13T16:54:09.413Z,7.74
2022-11-13T16:57:30.506Z,7.63
2022-11-13T17:00:54.975Z,7.57
2022-11-13T17:04:20.366Z,7.66
2022-11-13T17:07:41.791Z,7.76
2022-11-13T17:11:03.117Z,7.70
2022-11-13T17:14:24.296Z,7.70
2022-11-13T17:17:46.222Z,7.72
2022-11-13T17:21:07.683Z,7.65
2022-11-13T17:24:28.801Z,7.63
2022-11-13T17:27:51.084Z,7.59
2022-11-13T17:31:12.878Z,7.55
2022-11-13T17:34:33.853Z,7.46
2022-11-13T17:37:55.677Z,7.45
2022-11-13T17:41:17.858Z,7.38
2022-11-13T17:44:39.131Z,7.26
2022-11-13T17:48:00.227Z,7.38
2022-11-13T17:51:21.950Z,7.37
2022-11-13T17:54:43.105Z,7.36
2022-11-13T17:58:04.589Z,7.38
2022-11-13T18:01:25.711Z,7.20
2022-11-13T18:04:47.238Z,7.12
2022-11-13T18:08:08.348Z,7.18
2022-11-13T18:11:30.694Z,7.02
2022-11-13T18:14:55.117Z,7.14
2022-11-13T18:18:16.421Z,6.92
2022-11-13T18:21:37.940Z,6.74
2022-11-13T18:25:01.525Z,6.79
2022-11-13T18:28:23.216Z,6.65
2022-11-13T18:31:45.084Z,6.69
2022-11-13T18:35:06.968Z,6.74
2022-11-13T18:38:29.218Z,6.73
2022-11-13T18:41:50.671Z,6.73
2022-11-13T18:45:11.925Z,6.59
2022-11-13T18:48:35.959Z,6.51
2022-11-13T18:51:57.517Z,6.45
2022-11-13T18:55:18.808Z,6.44
2022-11-13T18:58:41.957Z,6.39
2022-11-13T19:02:03.238Z,6.45
2022-11-13T19:05:24.604Z,6.37
2022-11-13T19:08:46.908Z,6.25
2022-11-13T19:12:08.351Z,6.19
2022-11-13T19:15:31.701Z,6.15
2022-11-13T19:19:00.747Z,6.34
2022-11-13T19:22:22.108Z,6.04
2022-11-13T19:25:43.985Z,6.10
2022-11-13T19:29:05.586Z,6.22
2022-11-13T19:32:27.698Z,6.11
2022-11-13T19:35:50.495Z,6.14
2022-11-13T19:39:11.877Z,6.08
2022-11-13T19:42:36.125Z,6.00
2022-11-13T19:46:09.138Z,5.96
2022-11-13T19:49:30.465Z,5.94
2022-11-13T19:52:51.695Z,5.87
2022-11-13T19:56:19.229Z,5.88
2022-11-13T19:59:40.369Z,5.80
2022-11-13T20:03:06.526Z,5.77
2022-11-13T20:06:31.663Z,5.75
2022-11-13T20:09:53.257Z,5.80
2022-11-13T20:13:14.598Z,5.76
2022-11-13T20:16:35.738Z,5.77
2022-11-13T20:19:57.575Z,5.88
2022-11-13T20:23:18.722Z,5.88
2022-11-13T20:26:39.846Z,5.89
2022-11-13T20:30:01.355Z,5.88
2022-11-13T20:33:23.090Z,5.89
2022-11-13T20:36:45.710Z,5.76
2022-11-13T20:40:08.126Z,5.67
2022-11-13T20:43:29.450Z,5.67
2022-11-13T20:46:52.171Z,5.73
2022-11-13T20:50:14.150Z,5.68
2022-11-13T20:53:40.034Z,5.65
2022-11-13T20:57:01.380Z,5.67
2022-11-13T21:00:23.053Z,5.66
2022-11-13T21:03:45.669Z,5.65
2022-11-13T21:07:06.977Z,5.58
2022-11-13T21:10:28.446Z,5.37
2022-11-13T21:13:49.922Z,5.40
2022-11-13T21:17:10.812Z,5.50
2022-11-13T21:20:37.399Z,5.53
2022-11-13T21:23:59.246Z,5.48
2022-11-13T21:27:20.316Z,5.44
2022-11-13T21:30:43.653Z,5.40
2022-11-13T21:34:05.765Z,5.42
2022-11-13T21:37:26.952Z,5.48
2022-11-13T21:41:08.294Z,5.62
2022-11-13T21:44:29.528Z,5.57
2022-11-13T21:47:52.852Z,5.64
2022-11-13T21:51:14.656Z,5.66
2022-11-13T21:54:35.731Z,5.62
2022-11-13T21:57:57.864Z,5.58
2022-11-13T22:01:19.299Z,5.55
2022-11-13T22:04:40.343Z,5.36
2022-11-13T22:08:01.107Z,5.50
2022-11-13T22:11:23.066Z,5.48
2022-11-13T22:14:44.086Z,5.40
2022-11-13T22:18:05.567Z,5.51
2022-11-13T22:21:28.453Z,5.52
2022-11-13T22:24:49.461Z,5.81
2022-11-13T22:28:10.588Z,5.68
2022-11-13T22:31:33.686Z,5.66
2022-11-13T22:34:54.650Z,5.58
2022-11-13T22:38:16.711Z,5.54
2022-11-13T22:41:37.737Z,5.58
2022-11-13T22:44:58.946Z,5.66
2022-11-13T22:48:20.045Z,5.68
2022-11-13T22:51:41.690Z,5.60
2022-11-13T22:55:02.966Z,5.29
2022-11-13T22:58:24.129Z,5.43
2022-11-13T23:01:46.399Z,5.40
2022-11-13T23:05:07.663Z,5.45
2022-11-13T23:08:30.620Z,5.46
2022-11-13T23:11:52.671Z,5.33
2022-11-13T23:15:13.651Z,5.41
2022-11-13T23:18:34.437Z,5.35
2022-11-13T23:21:55.087Z,5.33
2022-11-13T23:25:16.056Z,5.38
2022-11-13T23:28:37.736Z,5.27
2022-11-13T23:31:58.906Z,5.27
2022-11-13T23:35:19.847Z,5.18
2022-11-13T23:38:41.532Z,5.09
2022-11-13T23:42:02.595Z,5.12
2022-11-13T23:45:23.598Z,5.19
2022-11-13T23:48:44.414Z,5.27
2022-11-13T23:52:05.345Z,5.24
2022-11-13T23:55:26.260Z,5.18
2022-11-13T23:58:47.311Z,5.25
